MeteoGriva Station Historical Data
 
Daily Summary for February 29, 2024 Units:  Metric    English   Both
Daily Weekly Monthly Yearly Custom
  Current: High: Low: Average:
Temperature: 13.2 °C 13.9 °C 9.9 °C 11 °C
Dew Point: 10.4 °C 10.9 °C 8.7 °C 9.3 °C
Humidity: 83% 95% 82% 89%
Wind Speed: 2.1km/h 8.2km/h 0km/h 3.2km/h
Wind Gust: 5km/h 10.5km/h - -
WindSW - - SE
Pressure: 1018.3 hPa 1019.6 hPa 1018.3 hPa -
Precipitation: 0.2 mm      
Historical Graphs
 
 
Tabular Data for February 29, 2024
Time Temperature Dew Point Pressure Wind Wind Speed Wind Gust Humidity Rainfall Rate (Hourly) solar
00:02 12.2 °C 9.4 °C 1019.6 hPa SSW 1.1 km/h 3.5 km/h 83% 0.0 mm 0 W/m2
00:12 12.2 °C 9.6 °C 1019.6 hPa Calm   2.6 km/h 84% 0.0 mm 0 W/m2
00:22 12.2 °C 9.6 °C 1019.3 hPa Calm   2.1 km/h 84% 0.0 mm 0 W/m2
00:32 12 °C 9.7 °C 1019.6 hPa Calm   3.2 km/h 86% 0.0 mm 0 W/m2
00:42 11.8 °C 9.7 °C 1019.6 hPa North 4.7 km/h 5.5 km/h 87% 0.0 mm 0 W/m2
00:52 11.8 °C 9.7 °C 1019.6 hPa North 2.6 km/h 4 km/h 87% 0.0 mm 0 W/m2
01:02 11.8 °C 9.7 °C 1019.6 hPa NNE 4 km/h 4 km/h 87% 0.0 mm 0 W/m2
01:12 11.7 °C 9.6 °C 1019.6 hPa SW 0.6 km/h 3.5 km/h 87% 0.0 mm 0 W/m2
01:22 11.7 °C 9.4 °C 1019.6 hPa SSW 1.8 km/h 4 km/h 86% 0.0 mm 0 W/m2
01:32 11.6 °C 9.5 °C 1019.6 hPa SW 0.6 km/h 6.9 km/h 87% 0.0 mm 0 W/m2
01:42 11.5 °C 9.4 °C 1019.6 hPa WSW 4.7 km/h 8.2 km/h 87% 0.0 mm 0 W/m2
01:52 11.4 °C 9.3 °C 1019.6 hPa NNE 7.6 km/h 9 km/h 87% 0.0 mm 0 W/m2
02:02 11.3 °C 9 °C 1019.6 hPa North 4.7 km/h 5 km/h 86% 0.0 mm 0 W/m2
02:12 11.2 °C 8.8 °C 1019.6 hPa NNE 5.8 km/h 8.7 km/h 85% 0.0 mm 0 W/m2
02:22 11.3 °C 9 °C 1019.6 hPa NNE 3.5 km/h 6.9 km/h 86% 0.0 mm 0 W/m2
02:32 11.3 °C 9 °C 1019.3 hPa NNE 8.2 km/h 10.5 km/h 86% 0.0 mm 0 W/m2
02:42 11.3 °C 9.2 °C 1019.3 hPa NNE 7.9 km/h 8.2 km/h 87% 0.0 mm 0 W/m2
02:52 11.2 °C 9.1 °C 1019.3 hPa SW 0.3 km/h 5 km/h 87% 0.0 mm 0 W/m2
03:02 10.9 °C 8.8 °C 1019.3 hPa North 3.2 km/h 4.3 km/h 87% 0.0 mm 0 W/m2
03:12 10.7 °C 8.8 °C 1019.3 hPa North 4 km/h 6.4 km/h 88% 0.0 mm 0 W/m2
03:22 10.5 °C 8.8 °C 1019.3 hPa NNE 3.5 km/h 4.3 km/h 89% 0.0 mm 0 W/m2
03:32 10.3 °C 8.7 °C 1019.3 hPa NNW 5 km/h 5 km/h 90% 0.0 mm 0 W/m2
03:42 10.1 °C 8.7 °C 1019.3 hPa NNE 4.7 km/h 4.7 km/h 91% 0.0 mm 0 W/m2
03:53 10 °C 8.8 °C 1019.3 hPa NNE 5.5 km/h 7.2 km/h 92% 0.0 mm 0 W/m2
04:03 10 °C 8.9 °C 1019.0 hPa North 4.3 km/h 9.3 km/h 93% 0.0 mm 0 W/m2
04:13 10 °C 8.9 °C 1019.0 hPa North 6.1 km/h 6.1 km/h 93% 0.0 mm 0 W/m2
04:23 10 °C 9.1 °C 1019.0 hPa NNE 5 km/h 7.2 km/h 94% 0.0 mm 0 W/m2
04:33 9.9 °C 9 °C 1019.0 hPa NNE 5.5 km/h 7.9 km/h 94% 0.0 mm 0 W/m2
04:43 9.9 °C 9.1 °C 1019.0 hPa NNE 5 km/h 6.9 km/h 95% 0.0 mm 0 W/m2
04:53 9.9 °C 9.1 °C 1019.0 hPa West 2.1 km/h 5.5 km/h 95% 0.0 mm 0 W/m2
05:03 10 °C 9.1 °C 1019.0 hPa NNE 3.2 km/h 4.7 km/h 94% 0.0 mm 0 W/m2
05:13 10.3 °C 8.7 °C 1019.0 hPa SSW 2.1 km/h 3.2 km/h 90% 0.0 mm 0 W/m2
05:23 10.4 °C 8.7 °C 1019.0 hPa NNE 3.5 km/h 4.7 km/h 89% 0.0 mm 0 W/m2
05:33 10.6 °C 8.7 °C 1019.3 hPa SSW 1.4 km/h 4 km/h 88% 0.0 mm 0 W/m2
05:43 10.5 °C 9.1 °C 1019.0 hPa West 1.1 km/h 3.2 km/h 91% 0.0 mm 0 W/m2
05:53 10.3 °C 9.1 °C 1018.6 hPa NNE 2.9 km/h 6.4 km/h 92% 0.0 mm 0 W/m2
06:03 10.2 °C 9 °C 1019.0 hPa ENE 1.1 km/h 3.5 km/h 92% 0.0 mm 0 W/m2
06:13 10.2 °C 9.1 °C 1019.0 hPa North 3.5 km/h 3.5 km/h 93% 0.0 mm 0 W/m2
06:23 10.1 °C 9 °C 1019.0 hPa SW 1.1 km/h 3.2 km/h 93% 0.0 mm 0 W/m2
06:33 10.2 °C 9.1 °C 1019.0 hPa SSE 2.1 km/h 2.6 km/h 93% 0.0 mm 0 W/m2
06:43 10.2 °C 9.1 °C 1018.6 hPa SSE 2.6 km/h 4 km/h 93% 0.0 mm 0 W/m2
06:53 10.2 °C 9.1 °C 1018.6 hPa North 0.3 km/h 2.6 km/h 93% 0.0 mm 0 W/m2
07:03 10.2 °C 9.1 °C 1018.6 hPa SSW 1.8 km/h 4.3 km/h 93% 0.0 mm 0 W/m2
07:13 10.3 °C 9.1 °C 1018.6 hPa SSW 1.4 km/h 4 km/h 92% 0.0 mm 0 W/m2
07:23 10.4 °C 9.2 °C 1018.6 hPa North 3.5 km/h 7.6 km/h 92% 0.0 mm 0 W/m2
07:33 10.4 °C 9 °C 1018.6 hPa North 4 km/h 5.5 km/h 91% 0.0 mm 3 W/m2
07:43 10.4 °C 9 °C 1018.6 hPa NNE 6.9 km/h 9.7 km/h 91% 0.0 mm 3 W/m2
07:53 10.5 °C 8.9 °C 1019.0 hPa NE 5.8 km/h 6.9 km/h 90% 0.0 mm 3 W/m2
08:03 10.4 °C 9 °C 1019.0 hPa NNW 4 km/h 4.7 km/h 91% 0.0 mm 5 W/m2
08:13 10.3 °C 9.1 °C 1019.0 hPa SSW 4.3 km/h 6.4 km/h 92% 0.0 mm 8 W/m2
08:23 10.2 °C 9.1 °C 1019.0 hPa North 4.3 km/h 7.2 km/h 93% 0.0 mm 8 W/m2
08:33 10.1 °C 9 °C 1019.0 hPa SSW 1.8 km/h 4.7 km/h 93% 0.0 mm 8 W/m2
08:43 10.1 °C 9 °C 1019.0 hPa North 3.5 km/h 4 km/h 93% 0.0 mm 10 W/m2
08:53 10 °C 9.1 °C 1019.3 hPa North 3.5 km/h 5.8 km/h 94% 0.0 mm 10 W/m2
09:03 10 °C 9.1 °C 1019.0 hPa NNE 4.3 km/h 5.8 km/h 94% 0.0 mm 17 W/m2
09:13 10 °C 9.1 °C 1019.0 hPa SSW 1.4 km/h 4.3 km/h 94% 0.0 mm 17 W/m2
09:23 10 °C 8.9 °C 1019.0 hPa North 3.2 km/h 5.8 km/h 93% 0.0 mm 17 W/m2
09:33 10 °C 8.8 °C 1019.0 hPa North 1.8 km/h 4.7 km/h 92% 0.0 mm 16 W/m2
09:43 10.1 °C 8.9 °C 1019.0 hPa NNE 3.5 km/h 4.7 km/h 92% 0.0 mm 21 W/m2
09:53 10.2 °C 9 °C 1019.0 hPa NNE 5.5 km/h 5.5 km/h 92% 0.0 mm 30 W/m2
10:03 10.3 °C 9.1 °C 1019.3 hPa SSW 1.8 km/h 4 km/h 92% 0.0 mm 56 W/m2
10:13 10.4 °C 9.3 °C 1019.3 hPa NNW 2.9 km/h 5.5 km/h 93% 0.0 mm 66 W/m2
10:23 10.5 °C 9.3 °C 1019.3 hPa SSW 0.3 km/h 2.6 km/h 92% 0.0 mm 26 W/m2
10:33 10.5 °C 8.9 °C 1019.0 hPa SSW 4.3 km/h 5.5 km/h 90% 0.0 mm 55 W/m2
10:43 10.6 °C 9.2 °C 1019.0 hPa SSW 2.1 km/h 3.5 km/h 91% 0.0 mm 75 W/m2
10:53 10.7 °C 9.1 °C 1019.3 hPa SSW 4.3 km/h 4.3 km/h 90% 0.0 mm 92 W/m2
11:03 10.9 °C 9.2 °C 1019.3 hPa South 4 km/h 7.9 km/h 89% 0.0 mm 117 W/m2
11:13 11 °C 9.3 °C 1019.3 hPa SSW 3.5 km/h 4.7 km/h 89% 0.0 mm 119 W/m2
11:23 11.2 °C 9.5 °C 1019.3 hPa SSW 2.1 km/h 5.5 km/h 89% 0.0 mm 189 W/m2
11:33 11.5 °C 9.4 °C 1019.3 hPa SSW 0.3 km/h 6.9 km/h 87% 0.0 mm 254 W/m2
11:43 12.2 °C 9.9 °C 1019.0 hPa NNW 1.8 km/h 4.7 km/h 86% 0.0 mm 722 W/m2
11:53 12.9 °C 10.3 °C 1019.0 hPa SSW 5 km/h 6.9 km/h 84% 0.0 mm 409 W/m2
12:03 13.2 °C 10.6 °C 1018.6 hPa ESE 3.2 km/h 4.7 km/h 84% 0.0 mm 601 W/m2
12:13 13.9 °C 10.9 °C 1018.6 hPa Calm   6.9 km/h 82% 0.0 mm 352 W/m2
12:23 13.8 °C 10.8 °C 1018.3 hPa North 1.8 km/h 7.6 km/h 82% 0.0 mm 228 W/m2
12:33 13.3 °C 10.5 °C 1018.3 hPa SSE 7.2 km/h 7.6 km/h 83% 0.0 mm 257 W/m2
12:43 13.2 °C 10.6 °C 1018.3 hPa NNW 2.1 km/h 5.5 km/h 84% 0.0 mm 170 W/m2
12:53 13.3 °C 10.5 °C 1018.3 hPa South 2.9 km/h 6.4 km/h 83% 0.0 mm 146 W/m2
13:03 13.2 °C 10.4 °C 1018.3 hPa SW 2.1 km/h 5 km/h 83% 0.0 mm 158 W/m2
Juneau County Weather
Compliments of Weather Underground - 4 mb